sensor_id;sensor_type;location;lat;lon;timestamp;temperature;humidity
46676;DHT22;32412;51.478;5.694;2022-09-20T00:01:19;11.90;99.90
46676;DHT22;32412;51.478;5.694;2022-09-20T00:03:47;11.90;99.90
46676;DHT22;32412;51.478;5.694;2022-09-20T00:06:16;11.90;99.90
46676;DHT22;32412;51.478;5.694;2022-09-20T00:08:43;11.90;99.90
46676;DHT22;32412;51.478;5.694;2022-09-20T00:11:12;11.90;99.90
46676;DHT22;32412;51.478;5.694;2022-09-20T00:13:40;11.90;99.90
46676;DHT22;32412;51.478;5.694;2022-09-20T00:16:08;11.90;99.90
46676;DHT22;32412;51.478;5.694;2022-09-20T00:18:35;11.90;99.90
46676;DHT22;32412;51.478;5.694;2022-09-20T00:21:00;11.90;99.90
46676;DHT22;32412;51.478;5.694;2022-09-20T00:23:26;11.90;99.90
46676;DHT22;32412;51.478;5.694;2022-09-20T00:26:02;11.90;99.90
46676;DHT22;32412;51.478;5.694;2022-09-20T00:28:29;11.80;99.90
46676;DHT22;32412;51.478;5.694;2022-09-20T00:30:56;11.90;99.90
46676;DHT22;32412;51.478;5.694;2022-09-20T00:33:23;11.90;99.90
46676;DHT22;32412;51.478;5.694;2022-09-20T00:35:49;11.90;99.90
46676;DHT22;32412;51.478;5.694;2022-09-20T00:38:15;11.90;99.90
46676;DHT22;32412;51.478;5.694;2022-09-20T00:40:44;11.90;99.90
46676;DHT22;32412;51.478;5.694;2022-09-20T00:43:16;11.90;99.90
46676;DHT22;32412;51.478;5.694;2022-09-20T00:45:46;11.90;99.90
46676;DHT22;32412;51.478;5.694;2022-09-20T00:48:27;11.90;99.90
46676;DHT22;32412;51.478;5.694;2022-09-20T00:50:58;11.90;99.90
46676;DHT22;32412;51.478;5.694;2022-09-20T00:53:36;11.90;99.90
46676;DHT22;32412;51.478;5.694;2022-09-20T00:56:09;11.90;99.90
46676;DHT22;32412;51.478;5.694;2022-09-20T00:58:44;11.80;99.90
46676;DHT22;32412;51.478;5.694;2022-09-20T01:01:13;11.80;99.90
46676;DHT22;32412;51.478;5.694;2022-09-20T01:03:39;11.80;99.90
46676;DHT22;32412;51.478;5.694;2022-09-20T01:06:09;11.80;99.90
46676;DHT22;32412;51.478;5.694;2022-09-20T01:08:36;11.80;99.90
46676;DHT22;32412;51.478;5.694;2022-09-20T01:11:02;11.70;99.90
46676;DHT22;32412;51.478;5.694;2022-09-20T01:13:28;11.70;99.90
46676;DHT22;32412;51.478;5.694;2022-09-20T01:15:55;11.60;99.90
46676;DHT22;32412;51.478;5.694;2022-09-20T01:18:23;11.60;99.90
46676;DHT22;32412;51.478;5.694;2022-09-20T01:20:49;11.60;99.90
46676;DHT22;32412;51.478;5.694;2022-09-20T01:28:32;11.40;99.90
46676;DHT22;32412;51.478;5.694;2022-09-20T01:37:10;11.40;99.90
46676;DHT22;32412;51.478;5.694;2022-09-20T01:39:10;11.50;99.90
46676;DHT22;32412;51.478;5.694;2022-09-20T01:41:43;11.50;99.90
46676;DHT22;32412;51.478;5.694;2022-09-20T01:47:31;11.50;99.90
46676;DHT22;32412;51.478;5.694;2022-09-20T01:53:15;11.60;99.90
46676;DHT22;32412;51.478;5.694;2022-09-20T01:56:19;11.60;99.90
46676;DHT22;32412;51.478;5.694;2022-09-20T02:04:36;11.60;99.90
46676;DHT22;32412;51.478;5.694;2022-09-20T02:07:40;11.60;99.90
46676;DHT22;32412;51.478;5.694;2022-09-20T02:10:34;11.50;99.90
46676;DHT22;32412;51.478;5.694;2022-09-20T02:13:10;11.60;99.90
46676;DHT22;32412;51.478;5.694;2022-09-20T02:23:58;11.70;99.90
46676;DHT22;32412;51.478;5.694;2022-09-20T02:29:15;11.60;99.90
46676;DHT22;32412;51.478;5.694;2022-09-20T02:34:48;11.60;99.90
46676;DHT22;32412;51.478;5.694;2022-09-20T02:42:55;11.60;99.90
46676;DHT22;32412;51.478;5.694;2022-09-20T02:45:46;11.50;99.90
46676;DHT22;32412;51.478;5.694;2022-09-20T02:48:22;11.60;99.90
46676;DHT22;32412;51.478;5.694;2022-09-20T02:51:11;11.50;99.90
46676;DHT22;32412;51.478;5.694;2022-09-20T02:53:46;11.50;99.90
46676;DHT22;32412;51.478;5.694;2022-09-20T02:56:26;11.50;99.90
46676;DHT22;32412;51.478;5.694;2022-09-20T02:59:19;11.50;99.90
46676;DHT22;32412;51.478;5.694;2022-09-20T03:27:30;11.50;99.90
46676;DHT22;32412;51.478;5.694;2022-09-20T03:32:51;11.50;99.90
46676;DHT22;32412;51.478;5.694;2022-09-20T03:35:42;11.50;99.90
46676;DHT22;32412;51.478;5.694;2022-09-20T03:38:41;11.50;99.90
46676;DHT22;32412;51.478;5.694;2022-09-20T03:44:25;11.60;99.90
46676;DHT22;32412;51.478;5.694;2022-09-20T03:47:02;11.60;99.90
46676;DHT22;32412;51.478;5.694;2022-09-20T03:49:59;11.60;99.90
46676;DHT22;32412;51.478;5.694;2022-09-20T03:53:26;11.60;99.90
46676;DHT22;32412;51.478;5.694;2022-09-20T03:58:54;11.50;99.90
46676;DHT22;32412;51.478;5.694;2022-09-20T04:01:59;11.50;99.90
46676;DHT22;32412;51.478;5.694;2022-09-20T04:04:48;11.50;99.90
46676;DHT22;32412;51.478;5.694;2022-09-20T04:07:29;11.60;99.90
46676;DHT22;32412;51.478;5.694;2022-09-20T04:18:45;11.50;99.90
46676;DHT22;32412;51.478;5.694;2022-09-20T04:21:21;11.50;99.90
46676;DHT22;32412;51.478;5.694;2022-09-20T04:26:36;11.50;99.90
46676;DHT22;32412;51.478;5.694;2022-09-20T04:29:20;11.60;99.90
46676;DHT22;32412;51.478;5.694;2022-09-20T04:34:27;11.50;99.90
46676;DHT22;32412;51.478;5.694;2022-09-20T04:37:28;11.50;99.90
46676;DHT22;32412;51.478;5.694;2022-09-20T04:40:14;11.50;99.90
46676;DHT22;32412;51.478;5.694;2022-09-20T04:43:17;11.60;99.90
46676;DHT22;32412;51.478;5.694;2022-09-20T05:00:21;11.60;99.90
46676;DHT22;32412;51.478;5.694;2022-09-20T05:08:28;11.60;99.90
46676;DHT22;32412;51.478;5.694;2022-09-20T05:41:11;11.40;99.90
46676;DHT22;32412;51.478;5.694;2022-09-20T05:44:04;11.30;99.90
46676;DHT22;32412;51.478;5.694;2022-09-20T05:52:23;11.30;99.90
46676;DHT22;32412;51.478;5.694;2022-09-20T06:00:33;11.30;99.90
46676;DHT22;32412;51.478;5.694;2022-09-20T06:06:17;11.40;99.90
46676;DHT22;32412;51.478;5.694;2022-09-20T06:09:09;11.40;99.90
46676;DHT22;32412;51.478;5.694;2022-09-20T06:12:10;11.50;99.90
46676;DHT22;32412;51.478;5.694;2022-09-20T06:15:02;11.60;99.90
46676;DHT22;32412;51.478;5.694;2022-09-20T06:17:37;11.60;99.90
46676;DHT22;32412;51.478;5.694;2022-09-20T06:20:14;11.70;99.90
46676;DHT22;32412;51.478;5.694;2022-09-20T06:22:50;11.80;99.90
46676;DHT22;32412;51.478;5.694;2022-09-20T06:25:27;11.90;99.90
46676;DHT22;32412;51.478;5.694;2022-09-20T06:30:54;12.10;99.90
46676;DHT22;32412;51.478;5.694;2022-09-20T06:33:22;12.30;99.90
46676;DHT22;32412;51.478;5.694;2022-09-20T06:41:52;12.70;99.90
46676;DHT22;32412;51.478;5.694;2022-09-20T06:44:18;12.90;99.90
46676;DHT22;32412;51.478;5.694;2022-09-20T06:46:43;12.90;99.90
46676;DHT22;32412;51.478;5.694;2022-09-20T06:49:09;13.00;99.90
46676;DHT22;32412;51.478;5.694;2022-09-20T06:51:37;13.00;99.90
46676;DHT22;32412;51.478;5.694;2022-09-20T06:54:04;13.00;99.90
46676;DHT22;32412;51.478;5.694;2022-09-20T06:56:32;13.10;99.90
46676;DHT22;32412;51.478;5.694;2022-09-20T06:59:07;13.00;99.90
46676;DHT22;32412;51.478;5.694;2022-09-20T07:01:37;13.00;99.90
46676;DHT22;32412;51.478;5.694;2022-09-20T07:04:03;13.00;99.90
46676;DHT22;32412;51.478;5.694;2022-09-20T07:06:31;13.00;99.90
46676;DHT22;32412;51.478;5.694;2022-09-20T07:08:56;12.90;99.90
46676;DHT22;32412;51.478;5.694;2022-09-20T07:11:22;13.00;99.90
46676;DHT22;32412;51.478;5.694;2022-09-20T07:13:52;13.10;99.90
46676;DHT22;32412;51.478;5.694;2022-09-20T07:16:19;13.10;99.90
46676;DHT22;32412;51.478;5.694;2022-09-20T07:18:46;13.20;99.90
46676;DHT22;32412;51.478;5.694;2022-09-20T07:21:14;13.30;99.90
46676;DHT22;32412;51.478;5.694;2022-09-20T07:23:40;13.30;99.90
46676;DHT22;32412;51.478;5.694;2022-09-20T07:26:11;13.40;99.90
46676;DHT22;32412;51.478;5.694;2022-09-20T07:28:40;13.50;99.90
46676;DHT22;32412;51.478;5.694;2022-09-20T07:31:09;13.60;99.90
46676;DHT22;32412;51.478;5.694;2022-09-20T07:33:34;13.60;99.90
46676;DHT22;32412;51.478;5.694;2022-09-20T07:36:01;13.70;99.90
46676;DHT22;32412;51.478;5.694;2022-09-20T07:38:27;13.80;99.90
46676;DHT22;32412;51.478;5.694;2022-09-20T07:40:57;14.00;99.90
46676;DHT22;32412;51.478;5.694;2022-09-20T07:43:25;14.10;99.90
46676;DHT22;32412;51.478;5.694;2022-09-20T07:45:52;14.20;99.90
46676;DHT22;32412;51.478;5.694;2022-09-20T07:48:27;14.30;99.90
46676;DHT22;32412;51.478;5.694;2022-09-20T07:50:56;14.60;99.90
46676;DHT22;32412;51.478;5.694;2022-09-20T07:53:22;14.60;99.90
46676;DHT22;32412;51.478;5.694;2022-09-20T07:56:12;14.70;99.90
46676;DHT22;32412;51.478;5.694;2022-09-20T07:58:39;14.90;99.90
46676;DHT22;32412;51.478;5.694;2022-09-20T08:01:07;15.10;99.90
46676;DHT22;32412;51.478;5.694;2022-09-20T08:03:34;15.30;99.90
46676;DHT22;32412;51.478;5.694;2022-09-20T08:06:07;15.20;99.90
46676;DHT22;32412;51.478;5.694;2022-09-20T08:08:39;15.10;99.90
46676;DHT22;32412;51.478;5.694;2022-09-20T08:11:23;15.00;99.90
46676;DHT22;32412;51.478;5.694;2022-09-20T08:13:51;15.00;99.90
46676;DHT22;32412;51.478;5.694;2022-09-20T08:16:24;15.00;99.90
46676;DHT22;32412;51.478;5.694;2022-09-20T08:18:55;15.10;99.90
46676;DHT22;32412;51.478;5.694;2022-09-20T08:21:29;15.10;99.90
46676;DHT22;32412;51.478;5.694;2022-09-20T08:23:56;15.20;99.90
46676;DHT22;32412;51.478;5.694;2022-09-20T08:26:29;15.20;99.90
46676;DHT22;32412;51.478;5.694;2022-09-20T08:29:10;15.20;99.90
46676;DHT22;32412;51.478;5.694;2022-09-20T08:31:40;15.30;99.90
46676;DHT22;32412;51.478;5.694;2022-09-20T08:34:19;15.40;99.90
46676;DHT22;32412;51.478;5.694;2022-09-20T08:36:53;15.40;99.90
46676;DHT22;32412;51.478;5.694;2022-09-20T08:39:23;15.40;99.90
46676;DHT22;32412;51.478;5.694;2022-09-20T08:44:54;15.60;99.90
46676;DHT22;32412;51.478;5.694;2022-09-20T08:47:28;15.70;99.90
46676;DHT22;32412;51.478;5.694;2022-09-20T08:49:55;15.60;99.90
46676;DHT22;32412;51.478;5.694;2022-09-20T08:52:29;15.60;99.90
46676;DHT22;32412;51.478;5.694;2022-09-20T08:54:56;15.80;99.90
46676;DHT22;32412;51.478;5.694;2022-09-20T08:57:24;15.90;99.90
46676;DHT22;32412;51.478;5.694;2022-09-20T08:59:51;16.10;99.90
46676;DHT22;32412;51.478;5.694;2022-09-20T09:02:19;16.20;99.90
46676;DHT22;32412;51.478;5.694;2022-09-20T09:04:46;16.30;99.90
46676;DHT22;32412;51.478;5.694;2022-09-20T09:07:15;16.50;99.90
46676;DHT22;32412;51.478;5.694;2022-09-20T09:09:43;16.80;99.90
46676;DHT22;32412;51.478;5.694;2022-09-20T09:12:24;16.80;99.90
46676;DHT22;32412;51.478;5.694;2022-09-20T09:14:51;17.10;99.90
46676;DHT22;32412;51.478;5.694;2022-09-20T09:17:24;17.10;99.90
46676;DHT22;32412;51.478;5.694;2022-09-20T09:19:57;16.90;99.90
46676;DHT22;32412;51.478;5.694;2022-09-20T09:22:28;16.90;99.90
46676;DHT22;32412;51.478;5.694;2022-09-20T09:30:41;17.90;99.90
46676;DHT22;32412;51.478;5.694;2022-09-20T09:33:25;18.10;99.90
46676;DHT22;32412;51.478;5.694;2022-09-20T09:36:16;18.60;99.90
46676;DHT22;32412;51.478;5.694;2022-09-20T09:38:45;19.70;99.90
46676;DHT22;32412;51.478;5.694;2022-09-20T09:41:21;20.50;99.90
46676;DHT22;32412;51.478;5.694;2022-09-20T09:46:31;19.20;99.90
46676;DHT22;32412;51.478;5.694;2022-09-20T09:49:13;18.70;99.90
46676;DHT22;32412;51.478;5.694;2022-09-20T09:54:37;18.00;99.90
46676;DHT22;32412;51.478;5.694;2022-09-20T09:57:35;17.70;99.90
46676;DHT22;32412;51.478;5.694;2022-09-20T10:00:17;17.40;99.90
46676;DHT22;32412;51.478;5.694;2022-09-20T10:09:00;16.00;99.90
46676;DHT22;32412;51.478;5.694;2022-09-20T10:30:17;15.10;99.90
46676;DHT22;32412;51.478;5.694;2022-09-20T10:32:59;15.00;99.90
46676;DHT22;32412;51.478;5.694;2022-09-20T10:35:54;15.10;99.90
46676;DHT22;32412;51.478;5.694;2022-09-20T10:38:39;15.20;99.90
46676;DHT22;32412;51.478;5.694;2022-09-20T10:41:14;15.10;99.90
46676;DHT22;32412;51.478;5.694;2022-09-20T10:47:12;15.30;99.90
46676;DHT22;32412;51.478;5.694;2022-09-20T10:49:57;15.50;99.90
46676;DHT22;32412;51.478;5.694;2022-09-20T10:58:27;15.70;99.90
46676;DHT22;32412;51.478;5.694;2022-09-20T11:01:33;16.00;99.90
46676;DHT22;32412;51.478;5.694;2022-09-20T11:06:56;17.40;99.90
46676;DHT22;32412;51.478;5.694;2022-09-20T11:09:32;18.20;99.90
46676;DHT22;32412;51.478;5.694;2022-09-20T11:12:22;18.30;99.90
46676;DHT22;32412;51.478;5.694;2022-09-20T11:15:03;18.10;99.90
46676;DHT22;32412;51.478;5.694;2022-09-20T11:17:34;18.20;99.90
46676;DHT22;32412;51.478;5.694;2022-09-20T11:20:21;18.20;99.90
46676;DHT22;32412;51.478;5.694;2022-09-20T11:22:58;18.20;99.90
46676;DHT22;32412;51.478;5.694;2022-09-20T11:25:36;18.10;99.90
46676;DHT22;32412;51.478;5.694;2022-09-20T11:28:31;17.70;99.90
46676;DHT22;32412;51.478;5.694;2022-09-20T11:31:25;17.50;99.90
46676;DHT22;32412;51.478;5.694;2022-09-20T11:33:57;17.50;99.90
46676;DHT22;32412;51.478;5.694;2022-09-20T11:36:31;18.40;99.90
46676;DHT22;32412;51.478;5.694;2022-09-20T11:39:25;18.80;99.90
46676;DHT22;32412;51.478;5.694;2022-09-20T11:41:54;18.40;99.90
46676;DHT22;32412;51.478;5.694;2022-09-20T11:44:21;17.70;99.90
46676;DHT22;32412;51.478;5.694;2022-09-20T11:47:02;17.20;99.90
46676;DHT22;32412;51.478;5.694;2022-09-20T11:55:08;19.20;99.90
46676;DHT22;32412;51.478;5.694;2022-09-20T11:57:37;20.60;99.90
46676;DHT22;32412;51.478;5.694;2022-09-20T12:00:04;21.20;99.90
46676;DHT22;32412;51.478;5.694;2022-09-20T12:02:50;20.20;99.90
46676;DHT22;32412;51.478;5.694;2022-09-20T12:05:36;19.50;99.90
46676;DHT22;32412;51.478;5.694;2022-09-20T12:08:36;18.70;99.90
46676;DHT22;32412;51.478;5.694;2022-09-20T12:11:09;18.10;99.90
46676;DHT22;32412;51.478;5.694;2022-09-20T12:13:40;17.90;99.90
46676;DHT22;32412;51.478;5.694;2022-09-20T12:16:34;17.70;99.90
46676;DHT22;32412;51.478;5.694;2022-09-20T12:19:04;17.40;99.90
46676;DHT22;32412;51.478;5.694;2022-09-20T12:26:59;17.40;99.90
46676;DHT22;32412;51.478;5.694;2022-09-20T12:32:01;18.10;99.90
46676;DHT22;32412;51.478;5.694;2022-09-20T12:34:31;17.90;99.90
46676;DHT22;32412;51.478;5.694;2022-09-20T12:39:34;17.60;99.90
46676;DHT22;32412;51.478;5.694;2022-09-20T12:42:21;17.60;99.90
46676;DHT22;32412;51.478;5.694;2022-09-20T12:47:20;17.10;99.90
46676;DHT22;32412;51.478;5.694;2022-09-20T12:55:41;16.80;99.90
46676;DHT22;32412;51.478;5.694;2022-09-20T13:00:40;16.90;99.90
46676;DHT22;32412;51.478;5.694;2022-09-20T13:19:19;17.80;99.90
46676;DHT22;32412;51.478;5.694;2022-09-20T13:21:54;17.60;99.90
46676;DHT22;32412;51.478;5.694;2022-09-20T13:24:23;17.60;99.90
46676;DHT22;32412;51.478;5.694;2022-09-20T13:26:51;17.60;99.90
46676;DHT22;32412;51.478;5.694;2022-09-20T13:29:43;17.50;99.90
46676;DHT22;32412;51.478;5.694;2022-09-20T13:32:30;17.20;99.90
46676;DHT22;32412;51.478;5.694;2022-09-20T13:40:33;16.60;99.90
46676;DHT22;32412;51.478;5.694;2022-09-20T13:43:01;16.60;99.90
46676;DHT22;32412;51.478;5.694;2022-09-20T13:45:28;16.80;99.90
46676;DHT22;32412;51.478;5.694;2022-09-20T13:47:56;17.00;99.90
46676;DHT22;32412;51.478;5.694;2022-09-20T13:50:26;17.10;99.90
46676;DHT22;32412;51.478;5.694;2022-09-20T13:53:12;17.20;99.90
46676;DHT22;32412;51.478;5.694;2022-09-20T13:55:41;17.10;99.90
46676;DHT22;32412;51.478;5.694;2022-09-20T13:58:30;17.10;99.90
46676;DHT22;32412;51.478;5.694;2022-09-20T14:01:04;17.20;99.90
46676;DHT22;32412;51.478;5.694;2022-09-20T14:03:44;17.10;99.90
46676;DHT22;32412;51.478;5.694;2022-09-20T14:06:12;17.00;99.90
46676;DHT22;32412;51.478;5.694;2022-09-20T14:08:46;17.20;99.90
46676;DHT22;32412;51.478;5.694;2022-09-20T14:11:22;17.70;99.90
46676;DHT22;32412;51.478;5.694;2022-09-20T14:13:55;18.20;99.90
46676;DHT22;32412;51.478;5.694;2022-09-20T14:16:28;18.40;99.90
46676;DHT22;32412;51.478;5.694;2022-09-20T14:18:55;18.30;99.90
46676;DHT22;32412;51.478;5.694;2022-09-20T14:21:27;18.10;99.90
46676;DHT22;32412;51.478;5.694;2022-09-20T14:24:20;18.10;99.90
46676;DHT22;32412;51.478;5.694;2022-09-20T14:29:49;18.20;99.90
46676;DHT22;32412;51.478;5.694;2022-09-20T14:35:16;18.30;99.90
46676;DHT22;32412;51.478;5.694;2022-09-20T14:37:49;18.00;99.90
46676;DHT22;32412;51.478;5.694;2022-09-20T14:40:44;17.80;99.90
46676;DHT22;32412;51.478;5.694;2022-09-20T14:45:53;17.20;99.90
46676;DHT22;32412;51.478;5.694;2022-09-20T14:53:45;17.40;99.90
46676;DHT22;32412;51.478;5.694;2022-09-20T14:56:13;17.40;99.90
46676;DHT22;32412;51.478;5.694;2022-09-20T15:02:24;17.30;99.90
46676;DHT22;32412;51.478;5.694;2022-09-20T15:04:58;17.10;99.90
46676;DHT22;32412;51.478;5.694;2022-09-20T15:07:25;17.00;99.90
46676;DHT22;32412;51.478;5.694;2022-09-20T15:09:51;17.10;99.90
46676;DHT22;32412;51.478;5.694;2022-09-20T15:12:23;17.20;99.90
46676;DHT22;32412;51.478;5.694;2022-09-20T15:14:56;17.20;99.90
46676;DHT22;32412;51.478;5.694;2022-09-20T15:17:21;17.10;99.90
46676;DHT22;32412;51.478;5.694;2022-09-20T15:19:49;16.90;99.90
46676;DHT22;32412;51.478;5.694;2022-09-20T15:22:15;16.70;99.90
46676;DHT22;32412;51.478;5.694;2022-09-20T15:24:41;16.70;99.90
46676;DHT22;32412;51.478;5.694;2022-09-20T15:27:10;16.70;99.90
46676;DHT22;32412;51.478;5.694;2022-09-20T15:29:36;16.70;99.90
46676;DHT22;32412;51.478;5.694;2022-09-20T15:32:02;16.80;99.90
46676;DHT22;32412;51.478;5.694;2022-09-20T15:34:30;16.90;99.90
46676;DHT22;32412;51.478;5.694;2022-09-20T15:36:56;16.90;99.90
46676;DHT22;32412;51.478;5.694;2022-09-20T15:39:22;17.00;99.90
46676;DHT22;32412;51.478;5.694;2022-09-20T15:41:51;17.00;99.90
46676;DHT22;32412;51.478;5.694;2022-09-20T15:44:17;17.10;99.90
46676;DHT22;32412;51.478;5.694;2022-09-20T15:46:43;17.00;99.90
46676;DHT22;32412;51.478;5.694;2022-09-20T15:49:19;16.90;99.90
46676;DHT22;32412;51.478;5.694;2022-09-20T15:51:48;16.80;99.90
46676;DHT22;32412;51.478;5.694;2022-09-20T15:54:14;16.70;99.90
46676;DHT22;32412;51.478;5.694;2022-09-20T15:56:43;16.60;99.90
46676;DHT22;32412;51.478;5.694;2022-09-20T15:59:10;16.40;99.90
46676;DHT22;32412;51.478;5.694;2022-09-20T16:01:41;16.40;99.90
46676;DHT22;32412;51.478;5.694;2022-09-20T16:04:24;16.40;99.90
46676;DHT22;32412;51.478;5.694;2022-09-20T16:06:51;16.30;99.90
46676;DHT22;32412;51.478;5.694;2022-09-20T16:09:17;16.30;99.90
46676;DHT22;32412;51.478;5.694;2022-09-20T16:11:44;16.20;99.90
46676;DHT22;32412;51.478;5.694;2022-09-20T16:14:10;16.30;99.90
46676;DHT22;32412;51.478;5.694;2022-09-20T16:16:35;16.30;99.90
46676;DHT22;32412;51.478;5.694;2022-09-20T16:19:01;16.30;99.90
46676;DHT22;32412;51.478;5.694;2022-09-20T16:21:44;16.20;99.90
46676;DHT22;32412;51.478;5.694;2022-09-20T16:24:15;16.40;99.90
46676;DHT22;32412;51.478;5.694;2022-09-20T16:26:41;16.30;99.90
46676;DHT22;32412;51.478;5.694;2022-09-20T16:29:07;16.30;99.90
46676;DHT22;32412;51.478;5.694;2022-09-20T16:31:41;16.20;99.90
46676;DHT22;32412;51.478;5.694;2022-09-20T16:36:41;16.10;99.90
46676;DHT22;32412;51.478;5.694;2022-09-20T16:39:08;16.10;99.90
46676;DHT22;32412;51.478;5.694;2022-09-20T16:41:34;16.00;99.90
46676;DHT22;32412;51.478;5.694;2022-09-20T16:44:00;15.90;99.90
46676;DHT22;32412;51.478;5.694;2022-09-20T16:46:26;15.80;99.90
46676;DHT22;32412;51.478;5.694;2022-09-20T16:48:55;15.70;99.90
46676;DHT22;32412;51.478;5.694;2022-09-20T16:51:22;15.70;99.90
46676;DHT22;32412;51.478;5.694;2022-09-20T16:53:51;15.60;99.90
46676;DHT22;32412;51.478;5.694;2022-09-20T16:56:26;15.50;99.90
46676;DHT22;32412;51.478;5.694;2022-09-20T16:58:54;15.50;99.90
46676;DHT22;32412;51.478;5.694;2022-09-20T17:01:20;15.40;99.90
46676;DHT22;32412;51.478;5.694;2022-09-20T17:03:46;15.30;99.90
46676;DHT22;32412;51.478;5.694;2022-09-20T17:06:13;15.20;99.90
46676;DHT22;32412;51.478;5.694;2022-09-20T17:08:40;15.10;99.90
46676;DHT22;32412;51.478;5.694;2022-09-20T17:11:09;15.00;99.90
46676;DHT22;32412;51.478;5.694;2022-09-20T17:13:36;14.90;99.90
46676;DHT22;32412;51.478;5.694;2022-09-20T17:16:28;14.80;99.90
46676;DHT22;32412;51.478;5.694;2022-09-20T17:19:05;14.70;99.90
46676;DHT22;32412;51.478;5.694;2022-09-20T17:21:32;14.50;99.90
46676;DHT22;32412;51.478;5.694;2022-09-20T17:33:22;14.00;99.90
46676;DHT22;32412;51.478;5.694;2022-09-20T17:35:51;13.80;99.90
46676;DHT22;32412;51.478;5.694;2022-09-20T17:38:17;13.70;99.90
46676;DHT22;32412;51.478;5.694;2022-09-20T17:40:43;13.70;99.90
46676;DHT22;32412;51.478;5.694;2022-09-20T17:43:08;13.60;99.90
46676;DHT22;32412;51.478;5.694;2022-09-20T17:45:34;13.40;99.90
46676;DHT22;32412;51.478;5.694;2022-09-20T17:48:00;13.30;99.90
46676;DHT22;32412;51.478;5.694;2022-09-20T17:50:25;13.30;99.90
46676;DHT22;32412;51.478;5.694;2022-09-20T17:52:51;13.20;99.90
46676;DHT22;32412;51.478;5.694;2022-09-20T17:55:17;13.10;99.90
46676;DHT22;32412;51.478;5.694;2022-09-20T17:57:42;12.90;99.90
46676;DHT22;32412;51.478;5.694;2022-09-20T18:00:08;12.90;99.90
46676;DHT22;32412;51.478;5.694;2022-09-20T18:02:34;12.80;99.90
46676;DHT22;32412;51.478;5.694;2022-09-20T18:05:00;12.70;99.90
46676;DHT22;32412;51.478;5.694;2022-09-20T18:07:26;12.60;99.90
46676;DHT22;32412;51.478;5.694;2022-09-20T18:09:51;12.50;99.90
46676;DHT22;32412;51.478;5.694;2022-09-20T18:12:17;12.50;99.90
46676;DHT22;32412;51.478;5.694;2022-09-20T18:14:43;12.40;99.90
46676;DHT22;32412;51.478;5.694;2022-09-20T18:17:11;12.30;99.90
46676;DHT22;32412;51.478;5.694;2022-09-20T18:19:37;12.20;99.90
46676;DHT22;32412;51.478;5.694;2022-09-20T18:22:04;12.10;99.90
46676;DHT22;32412;51.478;5.694;2022-09-20T18:24:30;12.10;99.90
46676;DHT22;32412;51.478;5.694;2022-09-20T18:26:56;12.00;99.90
46676;DHT22;32412;51.478;5.694;2022-09-20T18:29:22;11.90;99.90
46676;DHT22;32412;51.478;5.694;2022-09-20T18:31:53;11.80;99.90
46676;DHT22;32412;51.478;5.694;2022-09-20T18:34:28;11.80;99.90
46676;DHT22;32412;51.478;5.694;2022-09-20T18:36:58;11.70;99.90
46676;DHT22;32412;51.478;5.694;2022-09-20T18:39:30;11.60;99.90
46676;DHT22;32412;51.478;5.694;2022-09-20T18:42:05;11.60;99.90
46676;DHT22;32412;51.478;5.694;2022-09-20T18:44:33;11.60;99.90
46676;DHT22;32412;51.478;5.694;2022-09-20T18:47:00;11.50;99.90
46676;DHT22;32412;51.478;5.694;2022-09-20T18:49:27;11.40;99.90
46676;DHT22;32412;51.478;5.694;2022-09-20T18:51:55;11.40;99.90
46676;DHT22;32412;51.478;5.694;2022-09-20T18:54:21;11.40;99.90
46676;DHT22;32412;51.478;5.694;2022-09-20T18:56:48;11.40;99.90
46676;DHT22;32412;51.478;5.694;2022-09-20T18:59:22;11.30;99.90
46676;DHT22;32412;51.478;5.694;2022-09-20T19:07:10;11.20;99.90
46676;DHT22;32412;51.478;5.694;2022-09-20T19:10:06;11.20;99.90
46676;DHT22;32412;51.478;5.694;2022-09-20T19:20:55;11.00;99.90
46676;DHT22;32412;51.478;5.694;2022-09-20T19:26:23;10.80;99.90
46676;DHT22;32412;51.478;5.694;2022-09-20T19:28:51;10.70;99.90
46676;DHT22;32412;51.478;5.694;2022-09-20T19:31:26;10.70;99.90
46676;DHT22;32412;51.478;5.694;2022-09-20T19:33:54;10.50;99.90
46676;DHT22;32412;51.478;5.694;2022-09-20T19:39:38;10.60;99.90
46676;DHT22;32412;51.478;5.694;2022-09-20T19:45:04;10.50;99.90
46676;DHT22;32412;51.478;5.694;2022-09-20T19:50:43;10.60;99.90
46676;DHT22;32412;51.478;5.694;2022-09-20T19:53:13;10.70;99.90
46676;DHT22;32412;51.478;5.694;2022-09-20T19:55:45;10.60;99.90
46676;DHT22;32412;51.478;5.694;2022-09-20T19:58:12;10.70;99.90
46676;DHT22;32412;51.478;5.694;2022-09-20T20:00:38;10.60;99.90
46676;DHT22;32412;51.478;5.694;2022-09-20T20:03:05;10.60;99.90
46676;DHT22;32412;51.478;5.694;2022-09-20T20:05:31;10.50;99.90
46676;DHT22;32412;51.478;5.694;2022-09-20T20:24:55;10.30;99.90
46676;DHT22;32412;51.478;5.694;2022-09-20T20:27:22;10.20;99.90
46676;DHT22;32412;51.478;5.694;2022-09-20T20:29:49;10.20;99.90
46676;DHT22;32412;51.478;5.694;2022-09-20T20:32:15;10.10;99.90
46676;DHT22;32412;51.478;5.694;2022-09-20T20:34:41;10.10;99.90
46676;DHT22;32412;51.478;5.694;2022-09-20T20:37:07;10.10;99.90
46676;DHT22;32412;51.478;5.694;2022-09-20T20:39:33;10.10;99.90
46676;DHT22;32412;51.478;5.694;2022-09-20T20:42:03;10.10;99.90
46676;DHT22;32412;51.478;5.694;2022-09-20T20:44:31;10.20;99.90
46676;DHT22;32412;51.478;5.694;2022-09-20T20:47:00;10.20;99.90
46676;DHT22;32412;51.478;5.694;2022-09-20T20:49:26;10.20;99.90
46676;DHT22;32412;51.478;5.694;2022-09-20T20:51:52;10.20;99.90
46676;DHT22;32412;51.478;5.694;2022-09-20T20:54:18;10.20;99.90
46676;DHT22;32412;51.478;5.694;2022-09-20T20:56:45;10.20;99.90
46676;DHT22;32412;51.478;5.694;2022-09-20T20:59:11;10.30;99.90
46676;DHT22;32412;51.478;5.694;2022-09-20T21:01:38;10.40;99.90
46676;DHT22;32412;51.478;5.694;2022-09-20T21:04:09;10.50;99.90
46676;DHT22;32412;51.478;5.694;2022-09-20T21:06:39;10.60;99.90
46676;DHT22;32412;51.478;5.694;2022-09-20T21:09:06;10.70;99.90
46676;DHT22;32412;51.478;5.694;2022-09-20T21:11:35;10.70;99.90
46676;DHT22;32412;51.478;5.694;2022-09-20T21:14:02;10.80;99.90
46676;DHT22;32412;51.478;5.694;2022-09-20T21:16:33;10.80;99.90
46676;DHT22;32412;51.478;5.694;2022-09-20T21:19:03;10.80;99.90
46676;DHT22;32412;51.478;5.694;2022-09-20T21:21:34;10.80;99.90
46676;DHT22;32412;51.478;5.694;2022-09-20T21:24:02;10.80;99.90
46676;DHT22;32412;51.478;5.694;2022-09-20T21:26:29;10.80;99.90
46676;DHT22;32412;51.478;5.694;2022-09-20T21:29:02;10.90;99.90
46676;DHT22;32412;51.478;5.694;2022-09-20T21:31:33;10.90;99.90
46676;DHT22;32412;51.478;5.694;2022-09-20T21:34:00;10.90;99.90
46676;DHT22;32412;51.478;5.694;2022-09-20T21:36:27;10.90;99.90
46676;DHT22;32412;51.478;5.694;2022-09-20T21:38:53;10.90;99.90
46676;DHT22;32412;51.478;5.694;2022-09-20T21:41:22;10.90;99.90